sensor_id;sensor_type;location;lat;lon;timestamp;P1;durP1;ratioP1;P2;durP2;ratioP2
23252;SDS011;11795;47.054;15.408;2023-11-22T00:01:57;12.6;;;9.9;;
23252;SDS011;11795;47.054;15.408;2023-11-22T00:03:58;13.1;;;9.8;;
23252;SDS011;11795;47.054;15.408;2023-11-22T00:05:57;13.1;;;9.8;;
23252;SDS011;11795;47.054;15.408;2023-11-22T00:07:57;13.1;;;9.8;;
23252;SDS011;11795;47.054;15.408;2023-11-22T00:09:58;10.7;;;8.9;;
23252;SDS011;11795;47.054;15.408;2023-11-22T00:11:59;10.7;;;8.9;;
23252;SDS011;11795;47.054;15.408;2023-11-22T00:13:57;12.0;;;9.9;;
23252;SDS011;11795;47.054;15.408;2023-11-22T00:15:57;12.0;;;9.9;;
23252;SDS011;11795;47.054;15.408;2023-11-22T00:17:57;12.0;;;9.9;;
23252;SDS011;11795;47.054;15.408;2023-11-22T00:19:57;10.8;;;9.4;;
23252;SDS011;11795;47.054;15.408;2023-11-22T00:21:57;10.8;;;9.4;;
23252;SDS011;11795;47.054;15.408;2023-11-22T00:23:57;9.5;;;7.7;;
23252;SDS011;11795;47.054;15.408;2023-11-22T00:25:57;9.5;;;7.7;;
23252;SDS011;11795;47.054;15.408;2023-11-22T00:27:57;9.5;;;7.7;;
23252;SDS011;11795;47.054;15.408;2023-11-22T00:29:57;9.5;;;7.5;;
23252;SDS011;11795;47.054;15.408;2023-11-22T00:31:57;9.5;;;7.5;;
23252;SDS011;11795;47.054;15.408;2023-11-22T00:33:57;11.8;;;9.4;;
23252;SDS011;11795;47.054;15.408;2023-11-22T00:35:58;11.8;;;9.4;;
23252;SDS011;11795;47.054;15.408;2023-11-22T00:37:58;11.8;;;9.4;;
23252;SDS011;11795;47.054;15.408;2023-11-22T00:39:59;10.7;;;8.9;;
23252;SDS011;11795;47.054;15.408;2023-11-22T00:41:57;10.7;;;8.9;;
23252;SDS011;11795;47.054;15.408;2023-11-22T00:43:57;12.5;;;9.0;;
23252;SDS011;11795;47.054;15.408;2023-11-22T00:45:57;12.5;;;9.0;;
23252;SDS011;11795;47.054;15.408;2023-11-22T00:47:57;12.5;;;9.0;;
23252;SDS011;11795;47.054;15.408;2023-11-22T00:49:57;9.3;;;8.1;;
23252;SDS011;11795;47.054;15.408;2023-11-22T00:51:58;9.3;;;8.1;;
23252;SDS011;11795;47.054;15.408;2023-11-22T00:53:57;9.8;;;8.2;;
23252;SDS011;11795;47.054;15.408;2023-11-22T00:55:57;9.8;;;8.2;;
23252;SDS011;11795;47.054;15.408;2023-11-22T00:58:03;9.8;;;8.2;;
23252;SDS011;11795;47.054;15.408;2023-11-22T00:59:57;9.7;;;7.3;;
23252;SDS011;11795;47.054;15.408;2023-11-22T01:01:57;9.7;;;7.3;;
23252;SDS011;11795;47.054;15.408;2023-11-22T01:03:57;8.5;;;6.3;;
23252;SDS011;11795;47.054;15.408;2023-11-22T01:05:57;8.5;;;6.3;;
23252;SDS011;11795;47.054;15.408;2023-11-22T01:07:57;8.5;;;6.3;;
23252;SDS011;11795;47.054;15.408;2023-11-22T01:09:57;7.0;;;6.0;;
23252;SDS011;11795;47.054;15.408;2023-11-22T01:11:57;7.0;;;6.0;;
23252;SDS011;11795;47.054;15.408;2023-11-22T01:13:57;8.9;;;6.4;;
23252;SDS011;11795;47.054;15.408;2023-11-22T01:15:57;8.9;;;6.4;;
23252;SDS011;11795;47.054;15.408;2023-11-22T01:17:57;8.9;;;6.4;;
23252;SDS011;11795;47.054;15.408;2023-11-22T01:19:58;7.9;;;6.3;;
23252;SDS011;11795;47.054;15.408;2023-11-22T01:21:57;7.9;;;6.3;;
23252;SDS011;11795;47.054;15.408;2023-11-22T01:23:58;9.8;;;7.2;;
23252;SDS011;11795;47.054;15.408;2023-11-22T01:25:57;9.8;;;7.2;;
23252;SDS011;11795;47.054;15.408;2023-11-22T01:27:57;9.8;;;7.2;;
23252;SDS011;11795;47.054;15.408;2023-11-22T01:29:57;8.4;;;6.8;;
23252;SDS011;11795;47.054;15.408;2023-11-22T01:31:57;8.4;;;6.8;;
23252;SDS011;11795;47.054;15.408;2023-11-22T01:33:58;8.4;;;6.8;;
23252;SDS011;11795;47.054;15.408;2023-11-22T01:35:57;8.4;;;6.8;;
23252;SDS011;11795;47.054;15.408;2023-11-22T01:37:58;8.4;;;6.8;;
23252;SDS011;11795;47.054;15.408;2023-11-22T01:39:57;10.0;;;7.9;;
23252;SDS011;11795;47.054;15.408;2023-11-22T01:41:57;10.0;;;7.9;;
23252;SDS011;11795;47.054;15.408;2023-11-22T01:43:58;11.7;;;9.2;;
23252;SDS011;11795;47.054;15.408;2023-11-22T01:45:57;11.7;;;9.2;;
23252;SDS011;11795;47.054;15.408;2023-11-22T01:47:57;11.7;;;9.2;;
23252;SDS011;11795;47.054;15.408;2023-11-22T01:49:57;11.4;;;9.5;;
23252;SDS011;11795;47.054;15.408;2023-11-22T01:51:57;11.4;;;9.5;;
23252;SDS011;11795;47.054;15.408;2023-11-22T01:53:57;12.4;;;10.5;;
23252;SDS011;11795;47.054;15.408;2023-11-22T01:55:57;12.4;;;10.5;;
23252;SDS011;11795;47.054;15.408;2023-11-22T01:57:57;12.4;;;10.5;;
23252;SDS011;11795;47.054;15.408;2023-11-22T01:59:57;14.0;;;11.3;;
23252;SDS011;11795;47.054;15.408;2023-11-22T02:01:57;14.0;;;11.3;;
23252;SDS011;11795;47.054;15.408;2023-11-22T02:03:57;16.0;;;13.2;;
23252;SDS011;11795;47.054;15.408;2023-11-22T02:05:57;16.0;;;13.2;;
23252;SDS011;11795;47.054;15.408;2023-11-22T02:07:57;16.0;;;13.2;;
23252;SDS011;11795;47.054;15.408;2023-11-22T02:09:57;14.4;;;12.7;;
23252;SDS011;11795;47.054;15.408;2023-11-22T02:11:57;14.4;;;12.7;;
23252;SDS011;11795;47.054;15.408;2023-11-22T02:13:57;16.2;;;13.8;;
23252;SDS011;11795;47.054;15.408;2023-11-22T02:15:59;16.2;;;13.8;;
23252;SDS011;11795;47.054;15.408;2023-11-22T02:17:57;16.2;;;13.8;;
23252;SDS011;11795;47.054;15.408;2023-11-22T02:19:57;17.7;;;14.6;;
23252;SDS011;11795;47.054;15.408;2023-11-22T02:21:57;17.7;;;14.6;;
23252;SDS011;11795;47.054;15.408;2023-11-22T02:23:57;18.8;;;15.6;;
23252;SDS011;11795;47.054;15.408;2023-11-22T02:25:59;18.8;;;15.6;;
23252;SDS011;11795;47.054;15.408;2023-11-22T02:27:57;18.8;;;15.6;;
23252;SDS011;11795;47.054;15.408;2023-11-22T02:29:57;16.5;;;14.3;;
23252;SDS011;11795;47.054;15.408;2023-11-22T02:31:57;16.5;;;14.3;;
23252;SDS011;11795;47.054;15.408;2023-11-22T02:33:57;16.7;;;14.1;;
23252;SDS011;11795;47.054;15.408;2023-11-22T02:35:57;16.7;;;14.1;;
23252;SDS011;11795;47.054;15.408;2023-11-22T02:37:57;16.7;;;14.1;;
23252;SDS011;11795;47.054;15.408;2023-11-22T02:39:58;15.9;;;14.0;;
23252;SDS011;11795;47.054;15.408;2023-11-22T02:41:58;15.9;;;14.0;;
23252;SDS011;11795;47.054;15.408;2023-11-22T02:43:57;15.2;;;13.6;;
23252;SDS011;11795;47.054;15.408;2023-11-22T02:45:57;15.2;;;13.6;;
23252;SDS011;11795;47.054;15.408;2023-11-22T02:47:57;15.2;;;13.6;;
23252;SDS011;11795;47.054;15.408;2023-11-22T02:49:57;14.3;;;12.5;;
23252;SDS011;11795;47.054;15.408;2023-11-22T02:51:57;14.3;;;12.5;;
23252;SDS011;11795;47.054;15.408;2023-11-22T02:53:57;16.7;;;13.5;;
23252;SDS011;11795;47.054;15.408;2023-11-22T02:55:58;16.7;;;13.5;;
23252;SDS011;11795;47.054;15.408;2023-11-22T02:57:57;16.7;;;13.5;;
23252;SDS011;11795;47.054;15.408;2023-11-22T02:59:57;17.3;;;13.9;;
23252;SDS011;11795;47.054;15.408;2023-11-22T03:01:57;17.3;;;13.9;;
23252;SDS011;11795;47.054;15.408;2023-11-22T03:03:59;16.1;;;13.3;;
23252;SDS011;11795;47.054;15.408;2023-11-22T03:05:57;16.1;;;13.3;;
23252;SDS011;11795;47.054;15.408;2023-11-22T03:07:58;16.1;;;13.3;;
23252;SDS011;11795;47.054;15.408;2023-11-22T03:10:00;15.4;;;13.6;;
23252;SDS011;11795;47.054;15.408;2023-11-22T03:11:57;15.4;;;13.6;;
23252;SDS011;11795;47.054;15.408;2023-11-22T03:13:57;16.0;;;13.1;;
23252;SDS011;11795;47.054;15.408;2023-11-22T03:15:57;16.0;;;13.1;;
23252;SDS011;11795;47.054;15.408;2023-11-22T03:17:59;16.0;;;13.1;;
23252;SDS011;11795;47.054;15.408;2023-11-22T03:19:57;14.8;;;12.9;;
23252;SDS011;11795;47.054;15.408;2023-11-22T03:21:58;14.8;;;12.9;;
23252;SDS011;11795;47.054;15.408;2023-11-22T03:23:58;15.2;;;13.6;;
23252;SDS011;11795;47.054;15.408;2023-11-22T03:25:58;15.2;;;13.6;;
23252;SDS011;11795;47.054;15.408;2023-11-22T03:27:57;15.2;;;13.6;;
23252;SDS011;11795;47.054;15.408;2023-11-22T03:29:57;16.5;;;12.9;;
23252;SDS011;11795;47.054;15.408;2023-11-22T03:31:57;16.5;;;12.9;;
23252;SDS011;11795;47.054;15.408;2023-11-22T03:33:57;14.6;;;12.7;;
23252;SDS011;11795;47.054;15.408;2023-11-22T03:35:58;14.6;;;12.7;;
23252;SDS011;11795;47.054;15.408;2023-11-22T03:37:57;14.6;;;12.7;;
23252;SDS011;11795;47.054;15.408;2023-11-22T03:39:57;14.7;;;12.2;;
23252;SDS011;11795;47.054;15.408;2023-11-22T03:41:57;14.7;;;12.2;;
23252;SDS011;11795;47.054;15.408;2023-11-22T03:43:57;14.2;;;12.1;;
23252;SDS011;11795;47.054;15.408;2023-11-22T03:45:57;14.2;;;12.1;;
23252;SDS011;11795;47.054;15.408;2023-11-22T03:47:57;14.2;;;12.1;;
23252;SDS011;11795;47.054;15.408;2023-11-22T03:49:57;11.7;;;10.5;;
23252;SDS011;11795;47.054;15.408;2023-11-22T03:51:57;11.7;;;10.5;;
23252;SDS011;11795;47.054;15.408;2023-11-22T03:53:57;11.3;;;10.1;;
23252;SDS011;11795;47.054;15.408;2023-11-22T03:55:57;11.3;;;10.1;;
23252;SDS011;11795;47.054;15.408;2023-11-22T03:57:57;11.3;;;10.1;;
23252;SDS011;11795;47.054;15.408;2023-11-22T03:59:57;10.8;;;9.0;;
23252;SDS011;11795;47.054;15.408;2023-11-22T04:01:57;10.8;;;9.0;;
23252;SDS011;11795;47.054;15.408;2023-11-22T04:03:57;10.9;;;8.2;;
23252;SDS011;11795;47.054;15.408;2023-11-22T04:05:57;10.9;;;8.2;;
23252;SDS011;11795;47.054;15.408;2023-11-22T04:07:57;10.9;;;8.2;;
23252;SDS011;11795;47.054;15.408;2023-11-22T04:09:57;8.6;;;7.7;;
23252;SDS011;11795;47.054;15.408;2023-11-22T04:11:58;8.6;;;7.7;;
23252;SDS011;11795;47.054;15.408;2023-11-22T04:13:57;9.7;;;7.9;;
23252;SDS011;11795;47.054;15.408;2023-11-22T04:15:57;9.7;;;7.9;;
23252;SDS011;11795;47.054;15.408;2023-11-22T04:17:57;9.7;;;7.9;;
23252;SDS011;11795;47.054;15.408;2023-11-22T04:19:57;9.0;;;7.5;;
23252;SDS011;11795;47.054;15.408;2023-11-22T04:21:57;9.0;;;7.5;;
23252;SDS011;11795;47.054;15.408;2023-11-22T04:23:57;10.3;;;8.0;;
23252;SDS011;11795;47.054;15.408;2023-11-22T04:25:58;10.3;;;8.0;;
23252;SDS011;11795;47.054;15.408;2023-11-22T04:27:57;10.3;;;8.0;;
23252;SDS011;11795;47.054;15.408;2023-11-22T04:29:57;10.4;;;7.5;;
23252;SDS011;11795;47.054;15.408;2023-11-22T04:31:57;10.4;;;7.5;;
23252;SDS011;11795;47.054;15.408;2023-11-22T04:33:57;9.1;;;7.9;;
23252;SDS011;11795;47.054;15.408;2023-11-22T04:35:57;9.1;;;7.9;;
23252;SDS011;11795;47.054;15.408;2023-11-22T04:37:58;9.1;;;7.9;;
23252;SDS011;11795;47.054;15.408;2023-11-22T04:39:57;9.7;;;8.3;;
23252;SDS011;11795;47.054;15.408;2023-11-22T04:41:57;9.7;;;8.3;;
23252;SDS011;11795;47.054;15.408;2023-11-22T04:43:57;12.6;;;9.2;;
23252;SDS011;11795;47.054;15.408;2023-11-22T04:45:58;12.6;;;9.2;;
23252;SDS011;11795;47.054;15.408;2023-11-22T04:47:57;12.6;;;9.2;;
23252;SDS011;11795;47.054;15.408;2023-11-22T04:49:57;11.0;;;8.7;;
23252;SDS011;11795;47.054;15.408;2023-11-22T04:51:57;11.0;;;8.7;;
23252;SDS011;11795;47.054;15.408;2023-11-22T04:53:57;10.2;;;8.1;;
23252;SDS011;11795;47.054;15.408;2023-11-22T04:55:57;10.2;;;8.1;;
23252;SDS011;11795;47.054;15.408;2023-11-22T04:57:57;10.2;;;8.1;;
23252;SDS011;11795;47.054;15.408;2023-11-22T04:59:57;14.3;;;11.7;;
23252;SDS011;11795;47.054;15.408;2023-11-22T05:01:57;14.3;;;11.7;;
23252;SDS011;11795;47.054;15.408;2023-11-22T05:03:57;11.2;;;9.9;;
23252;SDS011;11795;47.054;15.408;2023-11-22T05:05:57;11.2;;;9.9;;
23252;SDS011;11795;47.054;15.408;2023-11-22T05:07:57;11.2;;;9.9;;
23252;SDS011;11795;47.054;15.408;2023-11-22T05:09:57;12.0;;;10.3;;
23252;SDS011;11795;47.054;15.408;2023-11-22T05:11:57;12.0;;;10.3;;
23252;SDS011;11795;47.054;15.408;2023-11-22T05:13:57;11.3;;;10.1;;
23252;SDS011;11795;47.054;15.408;2023-11-22T05:15:57;11.3;;;10.1;;
23252;SDS011;11795;47.054;15.408;2023-11-22T05:17:57;11.3;;;10.1;;
23252;SDS011;11795;47.054;15.408;2023-11-22T05:19:57;11.9;;;10.5;;
23252;SDS011;11795;47.054;15.408;2023-11-22T05:21:57;11.9;;;10.5;;
23252;SDS011;11795;47.054;15.408;2023-11-22T05:23:57;12.1;;;10.6;;
23252;SDS011;11795;47.054;15.408;2023-11-22T05:25:57;12.1;;;10.6;;
23252;SDS011;11795;47.054;15.408;2023-11-22T05:27:57;12.1;;;10.6;;
23252;SDS011;11795;47.054;15.408;2023-11-22T05:29:57;10.9;;;9.4;;
23252;SDS011;11795;47.054;15.408;2023-11-22T05:31:57;10.9;;;9.4;;
23252;SDS011;11795;47.054;15.408;2023-11-22T05:33:57;12.6;;;10.8;;
23252;SDS011;11795;47.054;15.408;2023-11-22T05:35:57;12.6;;;10.8;;
23252;SDS011;11795;47.054;15.408;2023-11-22T05:37:57;12.6;;;10.8;;
23252;SDS011;11795;47.054;15.408;2023-11-22T05:39:57;12.3;;;10.3;;
23252;SDS011;11795;47.054;15.408;2023-11-22T05:41:57;12.3;;;10.3;;
23252;SDS011;11795;47.054;15.408;2023-11-22T05:43:58;12.6;;;10.5;;
23252;SDS011;11795;47.054;15.408;2023-11-22T05:45:57;12.6;;;10.5;;
23252;SDS011;11795;47.054;15.408;2023-11-22T05:47:57;12.6;;;10.5;;
23252;SDS011;11795;47.054;15.408;2023-11-22T05:49:57;12.7;;;10.3;;
23252;SDS011;11795;47.054;15.408;2023-11-22T05:51:57;12.7;;;10.3;;
23252;SDS011;11795;47.054;15.408;2023-11-22T05:53:57;14.4;;;10.8;;
23252;SDS011;11795;47.054;15.408;2023-11-22T05:55:57;14.4;;;10.8;;
23252;SDS011;11795;47.054;15.408;2023-11-22T05:57:57;14.4;;;10.8;;
23252;SDS011;11795;47.054;15.408;2023-11-22T05:59:57;13.7;;;11.0;;
23252;SDS011;11795;47.054;15.408;2023-11-22T06:01:57;13.7;;;11.0;;
23252;SDS011;11795;47.054;15.408;2023-11-22T06:03:57;11.9;;;9.7;;
23252;SDS011;11795;47.054;15.408;2023-11-22T06:05:57;11.9;;;9.7;;
23252;SDS011;11795;47.054;15.408;2023-11-22T06:07:57;11.9;;;9.7;;
23252;SDS011;11795;47.054;15.408;2023-11-22T06:09:57;13.6;;;10.1;;
23252;SDS011;11795;47.054;15.408;2023-11-22T06:11:57;13.6;;;10.1;;
23252;SDS011;11795;47.054;15.408;2023-11-22T06:13:57;11.7;;;9.3;;
23252;SDS011;11795;47.054;15.408;2023-11-22T06:15:57;11.7;;;9.3;;
23252;SDS011;11795;47.054;15.408;2023-11-22T06:17:57;11.7;;;9.3;;
23252;SDS011;11795;47.054;15.408;2023-11-22T06:19:57;13.1;;;9.7;;
23252;SDS011;11795;47.054;15.408;2023-11-22T06:21:57;13.1;;;9.7;;
23252;SDS011;11795;47.054;15.408;2023-11-22T06:23:58;13.5;;;9.9;;
23252;SDS011;11795;47.054;15.408;2023-11-22T06:25:57;13.5;;;9.9;;
23252;SDS011;11795;47.054;15.408;2023-11-22T06:27:57;13.5;;;9.9;;
23252;SDS011;11795;47.054;15.408;2023-11-22T06:29:57;11.2;;;8.8;;
23252;SDS011;11795;47.054;15.408;2023-11-22T06:31:57;11.2;;;8.8;;
23252;SDS011;11795;47.054;15.408;2023-11-22T06:33:57;17.2;;;10.5;;
23252;SDS011;11795;47.054;15.408;2023-11-22T06:35:57;17.2;;;10.5;;
23252;SDS011;11795;47.054;15.408;2023-11-22T06:37:57;17.2;;;10.5;;
23252;SDS011;11795;47.054;15.408;2023-11-22T06:39:57;11.6;;;8.5;;
23252;SDS011;11795;47.054;15.408;2023-11-22T06:41:57;11.6;;;8.5;;
23252;SDS011;11795;47.054;15.408;2023-11-22T06:43:57;14.7;;;9.9;;
23252;SDS011;11795;47.054;15.408;2023-11-22T06:45:57;14.7;;;9.9;;
23252;SDS011;11795;47.054;15.408;2023-11-22T06:47:58;14.7;;;9.9;;
23252;SDS011;11795;47.054;15.408;2023-11-22T06:49:58;12.5;;;9.8;;
23252;SDS011;11795;47.054;15.408;2023-11-22T06:51:57;12.5;;;9.8;;
23252;SDS011;11795;47.054;15.408;2023-11-22T06:53:57;12.5;;;10.1;;
23252;SDS011;11795;47.054;15.408;2023-11-22T06:55:57;12.5;;;10.1;;
23252;SDS011;11795;47.054;15.408;2023-11-22T06:57:57;12.5;;;10.1;;
23252;SDS011;11795;47.054;15.408;2023-11-22T06:59:57;12.0;;;9.8;;
23252;SDS011;11795;47.054;15.408;2023-11-22T07:01:57;12.0;;;9.8;;
23252;SDS011;11795;47.054;15.408;2023-11-22T07:03:57;10.9;;;8.8;;
23252;SDS011;11795;47.054;15.408;2023-11-22T07:05:57;10.9;;;8.8;;
23252;SDS011;11795;47.054;15.408;2023-11-22T07:07:57;10.9;;;8.8;;
23252;SDS011;11795;47.054;15.408;2023-11-22T07:09:58;11.5;;;9.2;;
23252;SDS011;11795;47.054;15.408;2023-11-22T07:11:57;11.5;;;9.2;;
23252;SDS011;11795;47.054;15.408;2023-11-22T07:13:57;11.7;;;8.7;;
23252;SDS011;11795;47.054;15.408;2023-11-22T07:15:57;11.7;;;8.7;;
23252;SDS011;11795;47.054;15.408;2023-11-22T07:17:57;11.7;;;8.7;;
23252;SDS011;11795;47.054;15.408;2023-11-22T07:19:57;12.4;;;8.6;;
23252;SDS011;11795;47.054;15.408;2023-11-22T07:21:58;12.4;;;8.6;;
23252;SDS011;11795;47.054;15.408;2023-11-22T07:23:59;12.7;;;9.0;;
23252;SDS011;11795;47.054;15.408;2023-11-22T07:25:57;12.7;;;9.0;;
23252;SDS011;11795;47.054;15.408;2023-11-22T07:27:57;12.7;;;9.0;;
23252;SDS011;11795;47.054;15.408;2023-11-22T07:29:57;11.5;;;8.6;;
23252;SDS011;11795;47.054;15.408;2023-11-22T07:31:58;11.5;;;8.6;;
23252;SDS011;11795;47.054;15.408;2023-11-22T07:33:57;12.4;;;8.9;;
23252;SDS011;11795;47.054;15.408;2023-11-22T07:35:58;12.4;;;8.9;;
23252;SDS011;11795;47.054;15.408;2023-11-22T07:37:57;12.4;;;8.9;;
23252;SDS011;11795;47.054;15.408;2023-11-22T07:39:57;13.1;;;8.9;;
23252;SDS011;11795;47.054;15.408;2023-11-22T07:41:57;13.1;;;8.9;;
23252;SDS011;11795;47.054;15.408;2023-11-22T07:43:57;11.3;;;8.3;;
23252;SDS011;11795;47.054;15.408;2023-11-22T07:45:59;11.3;;;8.3;;
23252;SDS011;11795;47.054;15.408;2023-11-22T07:47:59;11.3;;;8.3;;
23252;SDS011;11795;47.054;15.408;2023-11-22T07:49:57;25.9;;;18.3;;
23252;SDS011;11795;47.054;15.408;2023-11-22T07:51:57;25.9;;;18.3;;
23252;SDS011;11795;47.054;15.408;2023-11-22T07:53:57;19.0;;;14.3;;
23252;SDS011;11795;47.054;15.408;2023-11-22T07:55:57;19.0;;;14.3;;
23252;SDS011;11795;47.054;15.408;2023-11-22T07:57:58;19.0;;;14.3;;
23252;SDS011;11795;47.054;15.408;2023-11-22T07:59:57;14.3;;;10.5;;
23252;SDS011;11795;47.054;15.408;2023-11-22T08:01:57;14.3;;;10.5;;
23252;SDS011;11795;47.054;15.408;2023-11-22T08:03:57;14.8;;;10.2;;
23252;SDS011;11795;47.054;15.408;2023-11-22T08:05:57;14.8;;;10.2;;
23252;SDS011;11795;47.054;15.408;2023-11-22T08:07:57;14.8;;;10.2;;
23252;SDS011;11795;47.054;15.408;2023-11-22T08:09:57;12.9;;;10.2;;
23252;SDS011;11795;47.054;15.408;2023-11-22T08:11:57;12.9;;;10.2;;
23252;SDS011;11795;47.054;15.408;2023-11-22T08:13:59;16.2;;;12.2;;
23252;SDS011;11795;47.054;15.408;2023-11-22T08:15:57;16.2;;;12.2;;
23252;SDS011;11795;47.054;15.408;2023-11-22T08:17:57;16.2;;;12.2;;
23252;SDS011;11795;47.054;15.408;2023-11-22T08:19:57;13.7;;;10.7;;
23252;SDS011;11795;47.054;15.408;2023-11-22T08:21:57;13.7;;;10.7;;
23252;SDS011;11795;47.054;15.408;2023-11-22T08:23:57;12.2;;;10.1;;
23252;SDS011;11795;47.054;15.408;2023-11-22T08:25:57;12.2;;;10.1;;
23252;SDS011;11795;47.054;15.408;2023-11-22T08:27:57;12.2;;;10.1;;
23252;SDS011;11795;47.054;15.408;2023-11-22T08:29:57;8.6;;;7.7;;
23252;SDS011;11795;47.054;15.408;2023-11-22T08:31:58;8.6;;;7.7;;
23252;SDS011;11795;47.054;15.408;2023-11-22T08:33:57;7.9;;;6.1;;
23252;SDS011;11795;47.054;15.408;2023-11-22T08:35:58;7.9;;;6.1;;
23252;SDS011;11795;47.054;15.408;2023-11-22T08:37:58;7.9;;;6.1;;
23252;SDS011;11795;47.054;15.408;2023-11-22T08:39:57;7.1;;;5.3;;
23252;SDS011;11795;47.054;15.408;2023-11-22T08:41:58;7.1;;;5.3;;
23252;SDS011;11795;47.054;15.408;2023-11-22T08:43:57;7.2;;;6.1;;
23252;SDS011;11795;47.054;15.408;2023-11-22T08:45:57;7.2;;;6.1;;
23252;SDS011;11795;47.054;15.408;2023-11-22T08:47:57;7.2;;;6.1;;
23252;SDS011;11795;47.054;15.408;2023-11-22T08:49:57;6.9;;;5.1;;
23252;SDS011;11795;47.054;15.408;2023-11-22T08:51:59;6.9;;;5.1;;
23252;SDS011;11795;47.054;15.408;2023-11-22T08:53:57;5.5;;;4.7;;
23252;SDS011;11795;47.054;15.408;2023-11-22T08:55:57;5.5;;;4.7;;
23252;SDS011;11795;47.054;15.408;2023-11-22T08:57:59;5.5;;;4.7;;
23252;SDS011;11795;47.054;15.408;2023-11-22T09:00:01;5.4;;;4.4;;
23252;SDS011;11795;47.054;15.408;2023-11-22T09:01:57;5.4;;;4.4;;
23252;SDS011;11795;47.054;15.408;2023-11-22T09:03:57;6.4;;;4.4;;
23252;SDS011;11795;47.054;15.408;2023-11-22T09:05:57;6.4;;;4.4;;
23252;SDS011;11795;47.054;15.408;2023-11-22T09:07:58;6.4;;;4.4;;
23252;SDS011;11795;47.054;15.408;2023-11-22T09:09:58;5.1;;;3.9;;
23252;SDS011;11795;47.054;15.408;2023-11-22T09:11:57;5.1;;;3.9;;
23252;SDS011;11795;47.054;15.408;2023-11-22T09:13:57;4.5;;;4.1;;
23252;SDS011;11795;47.054;15.408;2023-11-22T09:15:57;4.5;;;4.1;;
23252;SDS011;11795;47.054;15.408;2023-11-22T09:17:58;4.5;;;4.1;;
23252;SDS011;11795;47.054;15.408;2023-11-22T09:19:58;5.7;;;4.6;;
23252;SDS011;11795;47.054;15.408;2023-11-22T09:21:57;5.7;;;4.6;;
23252;SDS011;11795;47.054;15.408;2023-11-22T09:23:57;6.5;;;4.5;;
23252;SDS011;11795;47.054;15.408;2023-11-22T09:25:57;6.5;;;4.5;;
23252;SDS011;11795;47.054;15.408;2023-11-22T09:27:59;6.5;;;4.5;;
23252;SDS011;11795;47.054;15.408;2023-11-22T09:29:57;4.3;;;3.9;;
23252;SDS011;11795;47.054;15.408;2023-11-22T09:31:57;4.3;;;3.9;;
23252;SDS011;11795;47.054;15.408;2023-11-22T09:33:57;4.3;;;3.9;;
23252;SDS011;11795;47.054;15.408;2023-11-22T09:35:58;4.2;;;2.8;;
23252;SDS011;11795;47.054;15.408;2023-11-22T09:37:57;4.2;;;2.8;;
23252;SDS011;11795;47.054;15.408;2023-11-22T09:39:58;5.1;;;3.1;;
23252;SDS011;11795;47.054;15.408;2023-11-22T09:41:57;5.1;;;3.1;;
23252;SDS011;11795;47.054;15.408;2023-11-22T09:43:58;5.1;;;3.1;;
23252;SDS011;11795;47.054;15.408;2023-11-22T09:45:57;4.6;;;3.2;;
23252;SDS011;11795;47.054;15.408;2023-11-22T09:47:57;4.6;;;3.2;;
23252;SDS011;11795;47.054;15.408;2023-11-22T09:49:57;3.7;;;2.9;;
23252;SDS011;11795;47.054;15.408;2023-11-22T09:51:57;3.7;;;2.9;;
23252;SDS011;11795;47.054;15.408;2023-11-22T09:53:58;3.7;;;2.9;;
23252;SDS011;11795;47.054;15.408;2023-11-22T09:55:57;4.1;;;3.0;;
23252;SDS011;11795;47.054;15.408;2023-11-22T09:57:58;4.1;;;3.0;;
23252;SDS011;11795;47.054;15.408;2023-11-22T09:59:57;3.2;;;2.9;;
23252;SDS011;11795;47.054;15.408;2023-11-22T10:01:59;3.2;;;2.9;;
23252;SDS011;11795;47.054;15.408;2023-11-22T10:03:57;3.2;;;2.9;;
23252;SDS011;11795;47.054;15.408;2023-11-22T10:05:57;3.2;;;2.8;;
23252;SDS011;11795;47.054;15.408;2023-11-22T10:07:57;3.2;;;2.8;;
23252;SDS011;11795;47.054;15.408;2023-11-22T10:10:01;2.5;;;2.3;;
23252;SDS011;11795;47.054;15.408;2023-11-22T10:11:57;2.5;;;2.3;;
23252;SDS011;11795;47.054;15.408;2023-11-22T10:13:57;2.5;;;2.3;;
23252;SDS011;11795;47.054;15.408;2023-11-22T10:15:57;3.8;;;2.4;;
23252;SDS011;11795;47.054;15.408;2023-11-22T10:17:58;3.8;;;2.4;;
23252;SDS011;11795;47.054;15.408;2023-11-22T10:19:57;3.5;;;2.5;;
23252;SDS011;11795;47.054;15.408;2023-11-22T10:22:01;3.5;;;2.5;;
23252;SDS011;11795;47.054;15.408;2023-11-22T10:23:57;3.5;;;2.5;;
23252;SDS011;11795;47.054;15.408;2023-11-22T10:25:57;3.3;;;2.5;;
23252;SDS011;11795;47.054;15.408;2023-11-22T10:27:58;3.3;;;2.5;;
23252;SDS011;11795;47.054;15.408;2023-11-22T10:29:58;3.0;;;2.4;;
23252;SDS011;11795;47.054;15.408;2023-11-22T10:31:57;3.0;;;2.4;;
23252;SDS011;11795;47.054;15.408;2023-11-22T10:33:57;3.0;;;2.4;;
23252;SDS011;11795;47.054;15.408;2023-11-22T10:35:57;3.2;;;2.3;;
23252;SDS011;11795;47.054;15.408;2023-11-22T10:37:58;3.2;;;2.3;;
23252;SDS011;11795;47.054;15.408;2023-11-22T10:39:57;3.3;;;2.5;;
23252;SDS011;11795;47.054;15.408;2023-11-22T10:41:57;3.3;;;2.5;;
23252;SDS011;11795;47.054;15.408;2023-11-22T10:43:57;3.3;;;2.5;;
23252;SDS011;11795;47.054;15.408;2023-11-22T10:45:57;3.0;;;2.3;;
23252;SDS011;11795;47.054;15.408;2023-11-22T10:47:57;3.0;;;2.3;;
23252;SDS011;11795;47.054;15.408;2023-11-22T10:49:57;3.1;;;2.5;;
23252;SDS011;11795;47.054;15.408;2023-11-22T10:51:57;3.1;;;2.5;;
23252;SDS011;11795;47.054;15.408;2023-11-22T10:53:58;3.1;;;2.5;;
23252;SDS011;11795;47.054;15.408;2023-11-22T10:55:59;3.4;;;2.2;;
23252;SDS011;11795;47.054;15.408;2023-11-22T10:57:59;3.4;;;2.2;;
23252;SDS011;11795;47.054;15.408;2023-11-22T11:00:02;3.3;;;2.9;;
23252;SDS011;11795;47.054;15.408;2023-11-22T11:01:58;3.3;;;2.9;;
23252;SDS011;11795;47.054;15.408;2023-11-22T11:04:00;3.3;;;2.9;;
23252;SDS011;11795;47.054;15.408;2023-11-22T11:05:57;3.5;;;2.7;;
23252;SDS011;11795;47.054;15.408;2023-11-22T11:07:58;3.5;;;2.7;;
23252;SDS011;11795;47.054;15.408;2023-11-22T11:09:58;5.0;;;2.9;;
23252;SDS011;11795;47.054;15.408;2023-11-22T11:11:57;5.0;;;2.9;;
23252;SDS011;11795;47.054;15.408;2023-11-22T11:13:57;5.0;;;2.9;;
23252;SDS011;11795;47.054;15.408;2023-11-22T11:15:57;5.2;;;3.8;;
23252;SDS011;11795;47.054;15.408;2023-11-22T11:17:57;5.2;;;3.8;;
23252;SDS011;11795;47.054;15.408;2023-11-22T11:19:57;5.3;;;3.1;;
23252;SDS011;11795;47.054;15.408;2023-11-22T11:21:57;5.3;;;3.1;;
23252;SDS011;11795;47.054;15.408;2023-11-22T11:24:02;5.3;;;3.1;;
23252;SDS011;11795;47.054;15.408;2023-11-22T11:25:57;4.4;;;3.0;;
23252;SDS011;11795;47.054;15.408;2023-11-22T11:27:57;4.4;;;3.0;;
23252;SDS011;11795;47.054;15.408;2023-11-22T11:29:57;2.5;;;2.3;;
23252;SDS011;11795;47.054;15.408;2023-11-22T11:31:57;2.5;;;2.3;;
23252;SDS011;11795;47.054;15.408;2023-11-22T11:33:57;2.5;;;2.3;;
23252;SDS011;11795;47.054;15.408;2023-11-22T11:35:57;3.5;;;2.7;;
23252;SDS011;11795;47.054;15.408;2023-11-22T11:37:59;3.5;;;2.7;;
23252;SDS011;11795;47.054;15.408;2023-11-22T11:39:57;3.0;;;2.3;;
23252;SDS011;11795;47.054;15.408;2023-11-22T11:43:57;3.0;;;2.3;;
23252;SDS011;11795;47.054;15.408;2023-11-22T11:45:57;2.7;;;2.4;;
23252;SDS011;11795;47.054;15.408;2023-11-22T11:47:57;2.7;;;2.4;;
23252;SDS011;11795;47.054;15.408;2023-11-22T11:49:57;3.2;;;2.1;;
23252;SDS011;11795;47.054;15.408;2023-11-22T11:51:59;3.2;;;2.1;;
23252;SDS011;11795;47.054;15.408;2023-11-22T11:53:57;3.2;;;2.1;;
23252;SDS011;11795;47.054;15.408;2023-11-22T11:55:57;2.9;;;2.1;;
23252;SDS011;11795;47.054;15.408;2023-11-22T11:57:57;2.9;;;2.1;;
23252;SDS011;11795;47.054;15.408;2023-11-22T11:59:58;2.9;;;2.0;;
23252;SDS011;11795;47.054;15.408;2023-11-22T12:01:59;2.9;;;2.0;;
23252;SDS011;11795;47.054;15.408;2023-11-22T12:03:57;2.9;;;2.0;;
23252;SDS011;11795;47.054;15.408;2023-11-22T12:05:57;2.5;;;2.2;;